Aleknagik, Alaska
Current Conditions -  °F | °C
As of 12:16 AM on Monday 24 Nov 2014 (Local Time) from PADL Reporting Station
Overcast Overcast  
Wind Chill: -5°   Ceiling: 1700
Heat Index: -1°   Visibility: 10mi
Dew Point: -1°   Wind: 7mph
Humidity: 100%   Direction: 340°NNW
Pressure: 29.51"   Gusts: NA
Location:  59.27°N, 158.62°W
Report Text: PADL 240916Z 34006KT 10SM FEW004 OVC017 M01/M01 A2951 RMK AO1
Loading
Personal Weather Stations






























Interactive Weather Map New forecast layout! Learn more

10-Day Weather Forecast

Advertisements
Track Severe Weather on mobile